createdAt,value
2023-01-29T00:01:15.997Z,5.90
2023-01-29T00:03:53.218Z,6.20
2023-01-29T00:06:26.243Z,5.88
2023-01-29T00:08:59.314Z,6.37
2023-01-29T00:11:32.466Z,7.33
2023-01-29T00:14:05.735Z,7.30
2023-01-29T00:16:41.158Z,6.65
2023-01-29T00:19:15.585Z,6.57
2023-01-29T00:21:48.576Z,6.53
2023-01-29T00:24:21.712Z,6.32
2023-01-29T00:26:54.727Z,6.97
2023-01-29T00:29:27.720Z,6.90
2023-01-29T00:32:00.907Z,7.50
2023-01-29T00:34:35.432Z,6.97
2023-01-29T00:37:08.863Z,6.88
2023-01-29T00:39:48.039Z,6.93
2023-01-29T00:42:38.759Z,7.50
2023-01-29T00:45:12.741Z,7.88
2023-01-29T00:50:20.039Z,7.35
2023-01-29T00:52:54.693Z,8.10
2023-01-29T00:55:27.763Z,7.93
2023-01-29T00:58:00.711Z,7.87
2023-01-29T01:00:33.853Z,8.02
2023-01-29T01:03:05.962Z,8.73
2023-01-29T01:05:40.470Z,7.88
2023-01-29T01:08:31.097Z,9.57
2023-01-29T01:11:06.661Z,10.13
2023-01-29T01:13:39.650Z,10.18
2023-01-29T01:16:14.435Z,9.48
2023-01-29T01:18:47.636Z,10.95
2023-01-29T01:21:21.977Z,10.65
2023-01-29T01:23:55.009Z,9.15
2023-01-29T01:26:28.873Z,9.55
2023-01-29T01:29:01.906Z,8.77
2023-01-29T01:31:34.987Z,8.90
2023-01-29T01:34:13.692Z,9.27
2023-01-29T01:36:48.120Z,8.40
2023-01-29T01:39:21.121Z,8.50
2023-01-29T01:41:54.661Z,8.65
2023-01-29T01:44:53.700Z,8.05
2023-01-29T01:47:31.812Z,8.40
2023-01-29T01:50:09.870Z,8.57
2023-01-29T01:52:46.414Z,7.55
2023-01-29T01:55:22.675Z,7.70
2023-01-29T01:58:01.318Z,7.07
2023-01-29T02:00:34.662Z,7.28
2023-01-29T02:03:27.168Z,11.35
2023-01-29T02:06:18.800Z,8.93
2023-01-29T02:09:15.792Z,9.10
2023-01-29T02:11:48.776Z,9.18
2023-01-29T02:14:22.789Z,9.00
2023-01-29T02:16:55.984Z,7.15
2023-01-29T02:19:40.496Z,7.63
2023-01-29T02:22:38.732Z,8.68
2023-01-29T02:26:00.349Z,9.60
2023-01-29T02:28:40.689Z,8.35
2023-01-29T02:31:25.489Z,8.52
2023-01-29T02:34:09.963Z,8.60
2023-01-29T02:36:50.633Z,8.75
2023-01-29T02:39:30.999Z,7.88
2023-01-29T02:42:14.219Z,7.78
2023-01-29T02:44:53.341Z,8.43
2023-01-29T02:47:35.009Z,8.32
2023-01-29T02:50:16.189Z,8.68
2023-01-29T02:52:59.011Z,8.20
2023-01-29T02:55:37.308Z,8.23
2023-01-29T02:58:15.138Z,7.88
2023-01-29T03:00:52.248Z,8.77
2023-01-29T03:03:30.300Z,11.18
2023-01-29T03:06:07.898Z,6.65
2023-01-29T03:08:45.549Z,8.00
2023-01-29T03:11:19.457Z,7.50
2023-01-29T03:13:57.840Z,6.70
2023-01-29T03:16:37.205Z,6.80
2023-01-29T03:19:16.278Z,6.70
2023-01-29T03:22:00.136Z,6.82
2023-01-29T03:24:59.918Z,7.07
2023-01-29T03:27:59.274Z,6.13
2023-01-29T03:31:00.395Z,6.80
2023-01-29T03:33:47.106Z,6.20
2023-01-29T03:36:24.276Z,7.30
2023-01-29T03:38:57.289Z,8.23
2023-01-29T03:41:35.896Z,6.43
2023-01-29T03:44:15.778Z,6.80
2023-01-29T03:46:56.562Z,9.15
2023-01-29T03:49:42.916Z,7.70
2023-01-29T03:52:23.274Z,7.95
2023-01-29T03:55:07.014Z,9.32
2023-01-29T03:57:46.577Z,9.25
2023-01-29T04:00:25.602Z,9.07
2023-01-29T04:03:11.240Z,8.00
2023-01-29T04:05:52.777Z,9.30
2023-01-29T04:08:35.841Z,8.40
2023-01-29T04:11:15.345Z,7.00
2023-01-29T04:13:49.444Z,7.07
2023-01-29T04:16:30.106Z,8.18
2023-01-29T04:19:29.797Z,8.82
2023-01-29T04:22:13.920Z,8.30
2023-01-29T04:24:47.964Z,7.22
2023-01-29T04:30:15.205Z,9.07
2023-01-29T04:33:02.091Z,9.43
2023-01-29T04:35:49.943Z,8.48
2023-01-29T04:38:36.200Z,8.23
2023-01-29T04:41:15.190Z,8.32
2023-01-29T04:43:59.315Z,9.57
2023-01-29T04:46:40.268Z,9.57
2023-01-29T04:49:20.937Z,10.52
2023-01-29T04:52:02.096Z,10.15
2023-01-29T04:54:52.050Z,9.70
2023-01-29T04:57:30.827Z,9.93
2023-01-29T05:00:12.069Z,9.07
2023-01-29T05:02:47.076Z,9.00
2023-01-29T05:05:22.208Z,8.75
2023-01-29T05:07:56.621Z,9.55
2023-01-29T05:10:31.345Z,9.40
2023-01-29T05:13:08.865Z,8.55
2023-01-29T05:15:48.189Z,8.85
2023-01-29T05:18:21.534Z,9.60
2023-01-29T05:20:57.988Z,8.38
2023-01-29T05:23:31.102Z,8.90
2023-01-29T05:26:06.044Z,9.17
2023-01-29T05:28:38.013Z,8.82
2023-01-29T05:31:11.096Z,9.52
2023-01-29T05:33:44.144Z,9.13
2023-01-29T05:36:17.111Z,8.23
2023-01-29T05:38:50.329Z,9.95
2023-01-29T05:41:24.780Z,8.95
2023-01-29T05:43:57.802Z,9.02
2023-01-29T05:46:30.885Z,8.93
2023-01-29T05:49:03.955Z,9.93
2023-01-29T05:51:37.382Z,9.10
2023-01-29T05:54:12.605Z,8.00
2023-01-29T05:56:47.036Z,9.55
2023-01-29T05:59:20.207Z,9.30
2023-01-29T06:01:53.960Z,9.52
2023-01-29T06:07:01.169Z,9.57
2023-01-29T06:09:34.151Z,8.63
2023-01-29T06:12:08.815Z,10.77
2023-01-29T06:14:41.769Z,10.75
2023-01-29T06:17:14.804Z,10.48
2023-01-29T06:19:47.779Z,9.23
2023-01-29T06:22:20.760Z,8.25
2023-01-29T06:24:53.753Z,8.73
2023-01-29T06:27:28.133Z,9.05
2023-01-29T06:30:01.144Z,8.23
2023-01-29T06:32:34.269Z,9.63
2023-01-29T06:35:09.863Z,8.77
2023-01-29T06:37:42.832Z,8.27
2023-01-29T06:40:16.195Z,8.10
2023-01-29T06:42:50.848Z,8.32
2023-01-29T06:45:24.113Z,8.95
2023-01-29T06:47:59.927Z,8.05
2023-01-29T06:50:34.258Z,8.45
2023-01-29T06:53:07.213Z,7.35
2023-01-29T06:55:40.359Z,7.75
2023-01-29T06:58:14.689Z,9.45
2023-01-29T07:00:47.930Z,8.27
2023-01-29T07:03:21.174Z,7.97
2023-01-29T07:05:54.346Z,9.53
2023-01-29T07:08:28.421Z,8.67
2023-01-29T07:13:35.823Z,8.45
2023-01-29T07:16:09.052Z,9.32
2023-01-29T07:18:42.193Z,9.73
2023-01-29T07:21:15.298Z,9.45
2023-01-29T07:23:48.274Z,10.38
2023-01-29T07:26:21.275Z,10.95
2023-01-29T07:28:55.798Z,12.35
2023-01-29T07:31:28.945Z,10.48
2023-01-29T07:34:02.098Z,10.27
2023-01-29T07:36:37.203Z,9.20
2023-01-29T07:39:10.189Z,8.55
2023-01-29T07:41:43.173Z,9.43
2023-01-29T07:44:23.768Z,8.80
2023-01-29T07:46:56.802Z,8.20
2023-01-29T07:49:29.908Z,9.60
2023-01-29T07:52:02.931Z,8.60
2023-01-29T07:54:35.975Z,8.82
2023-01-29T07:57:08.965Z,9.97
2023-01-29T07:59:43.685Z,8.95
2023-01-29T08:02:17.013Z,10.38
2023-01-29T08:04:50.054Z,9.90
2023-01-29T08:07:23.149Z,9.27
2023-01-29T08:09:56.178Z,8.35
2023-01-29T08:12:29.173Z,10.23
2023-01-29T08:15:03.630Z,9.03
2023-01-29T08:17:43.321Z,9.40
2023-01-29T08:20:23.693Z,9.35
2023-01-29T08:23:04.486Z,8.55
2023-01-29T08:25:38.299Z,8.60
2023-01-29T08:28:12.383Z,8.00
2023-01-29T08:30:47.214Z,8.60
2023-01-29T08:33:29.863Z,9.02
2023-01-29T08:36:11.269Z,8.30
2023-01-29T08:38:44.254Z,8.55
2023-01-29T08:41:17.265Z,8.43
2023-01-29T08:43:50.319Z,8.93
2023-01-29T08:46:24.858Z,8.27
2023-01-29T08:48:57.907Z,8.63
2023-01-29T08:51:30.936Z,8.50
2023-01-29T08:54:03.984Z,8.23
2023-01-29T08:56:36.981Z,10.00
2023-01-29T08:59:10.921Z,8.60
2023-01-29T09:04:18.041Z,7.85
2023-01-29T09:06:51.158Z,8.90
2023-01-29T09:09:24.436Z,8.10
2023-01-29T09:11:57.459Z,8.48
2023-01-29T09:14:30.443Z,7.95
2023-01-29T09:17:04.862Z,8.73
2023-01-29T09:19:37.866Z,8.38
2023-01-29T09:22:12.015Z,8.45
2023-01-29T09:24:45.185Z,9.48
2023-01-29T09:27:18.166Z,7.88
2023-01-29T09:29:51.173Z,8.98
2023-01-29T09:32:55.356Z,9.07
2023-01-29T09:35:18.926Z,8.23
2023-01-29T09:37:52.620Z,8.73
2023-01-29T09:40:27.888Z,9.15
2023-01-29T09:43:05.508Z,9.52
2023-01-29T09:45:42.021Z,8.38
2023-01-29T09:48:16.499Z,8.95
2023-01-29T09:50:52.816Z,8.60
2023-01-29T09:53:32.646Z,8.68
2023-01-29T09:56:12.616Z,9.32
2023-01-29T09:58:45.963Z,8.95
2023-01-29T10:01:24.086Z,9.10
2023-01-29T10:04:15.333Z,8.50
2023-01-29T10:07:01.874Z,9.18
2023-01-29T10:09:57.221Z,9.13
2023-01-29T10:12:47.180Z,10.32
2023-01-29T10:15:33.369Z,9.63
2023-01-29T10:18:34.728Z,10.10
2023-01-29T10:21:29.474Z,9.10
2023-01-29T10:24:16.077Z,9.30
2023-01-29T10:26:49.392Z,10.07
2023-01-29T10:29:23.312Z,11.15
2023-01-29T10:32:04.839Z,9.73
2023-01-29T10:34:43.958Z,10.48
2023-01-29T10:37:21.560Z,9.80
2023-01-29T10:39:54.506Z,10.27
2023-01-29T10:42:33.183Z,10.73
2023-01-29T10:45:20.732Z,10.93
2023-01-29T10:48:30.114Z,11.13
2023-01-29T10:51:14.579Z,12.20
2023-01-29T10:54:00.871Z,12.27
2023-01-29T10:56:52.647Z,12.65
2023-01-29T10:59:40.611Z,12.13
2023-01-29T11:02:17.888Z,12.35
2023-01-29T11:04:51.087Z,12.98
2023-01-29T11:07:24.498Z,12.97
2023-01-29T11:10:04.153Z,13.18
2023-01-29T11:12:38.886Z,14.95
2023-01-29T11:15:20.747Z,14.68
2023-01-29T11:18:10.435Z,14.73
2023-01-29T11:20:45.700Z,15.02
2023-01-29T11:23:28.302Z,14.60
2023-01-29T11:26:04.862Z,13.52
2023-01-29T11:28:40.673Z,14.43
2023-01-29T11:31:22.215Z,17.40
2023-01-29T11:34:06.758Z,13.95
2023-01-29T11:36:40.749Z,16.95
2023-01-29T11:41:54.752Z,13.25
2023-01-29T11:44:36.770Z,13.75
2023-01-29T11:47:19.324Z,15.35
2023-01-29T11:49:56.132Z,13.07
2023-01-29T11:52:37.570Z,13.48
2023-01-29T11:55:19.005Z,14.18
2023-01-29T11:57:58.881Z,14.98
2023-01-29T12:00:34.601Z,17.35
2023-01-29T12:03:14.775Z,17.38
2023-01-29T12:05:56.249Z,14.15
2023-01-29T12:08:34.918Z,13.48
2023-01-29T12:11:14.662Z,12.90
2023-01-29T12:13:55.739Z,12.82
2023-01-29T12:16:34.477Z,15.20
2023-01-29T12:19:16.006Z,13.30
2023-01-29T12:21:55.056Z,13.88
2023-01-29T12:24:35.284Z,16.30
2023-01-29T12:27:19.775Z,14.90
2023-01-29T12:30:03.705Z,15.57
2023-01-29T12:32:45.649Z,15.90
2023-01-29T12:35:23.637Z,15.52
2023-01-29T12:38:03.510Z,15.02
2023-01-29T12:40:41.947Z,14.18
2023-01-29T12:43:22.290Z,13.85
2023-01-29T12:46:02.680Z,12.88
2023-01-29T12:48:43.675Z,13.48
2023-01-29T12:51:19.800Z,15.27
2023-01-29T12:53:58.341Z,14.40
2023-01-29T12:56:36.970Z,13.95
2023-01-29T12:59:19.239Z,13.40
2023-01-29T13:01:59.926Z,13.55
2023-01-29T13:04:40.230Z,13.20
2023-01-29T13:07:18.865Z,13.65
2023-01-29T13:09:56.372Z,13.48
2023-01-29T13:12:30.404Z,13.38
2023-01-29T13:17:49.107Z,14.90
2023-01-29T13:20:29.911Z,15.27
2023-01-29T13:23:16.490Z,14.15
2023-01-29T13:25:52.854Z,14.60
2023-01-29T13:28:28.218Z,15.65
2023-01-29T13:31:24.259Z,16.58
2023-01-29T13:34:09.378Z,14.70
2023-01-29T13:36:45.186Z,15.73
2023-01-29T13:39:25.550Z,14.35
2023-01-29T13:42:00.657Z,15.77
2023-01-29T13:44:35.901Z,14.38
2023-01-29T13:47:13.830Z,15.25
2023-01-29T13:49:56.611Z,16.27
2023-01-29T13:52:36.641Z,16.60
2023-01-29T13:55:26.285Z,15.00
2023-01-29T13:58:00.664Z,14.40
2023-01-29T14:00:58.575Z,16.33
2023-01-29T14:04:04.809Z,16.10
2023-01-29T14:06:51.381Z,15.88
2023-01-29T14:09:54.979Z,17.10
2023-01-29T14:12:37.196Z,18.75
2023-01-29T14:15:32.818Z,17.77
2023-01-29T14:18:23.004Z,17.25
2023-01-29T14:21:07.308Z,16.10
2023-01-29T14:26:27.394Z,16.35
2023-01-29T14:29:05.859Z,18.55
2023-01-29T14:31:45.259Z,18.65
2023-01-29T14:34:24.959Z,19.35
2023-01-29T14:37:02.444Z,19.15
2023-01-29T14:39:44.194Z,20.25
2023-01-29T14:42:23.659Z,20.95
2023-01-29T14:45:00.498Z,20.33
2023-01-29T14:48:06.786Z,19.58
2023-01-29T14:50:51.477Z,26.25
2023-01-29T14:53:31.221Z,23.02
2023-01-29T14:56:15.298Z,20.38
2023-01-29T14:58:50.967Z,18.88
2023-01-29T15:01:31.727Z,21.20
2023-01-29T15:04:07.609Z,21.25
2023-01-29T15:06:46.865Z,22.15
2023-01-29T15:09:37.335Z,20.10
2023-01-29T15:12:21.868Z,18.65
2023-01-29T15:15:04.550Z,18.70
2023-01-29T15:17:43.917Z,17.15
2023-01-29T15:20:32.511Z,16.95
2023-01-29T15:23:26.786Z,17.25
2023-01-29T15:26:01.945Z,17.65
2023-01-29T15:28:37.143Z,18.00
2023-01-29T15:31:17.188Z,17.25
2023-01-29T15:33:53.196Z,18.13
2023-01-29T15:36:29.705Z,18.08
2023-01-29T15:39:21.573Z,17.67
2023-01-29T15:42:11.743Z,17.95
2023-01-29T15:44:49.150Z,17.08
2023-01-29T15:47:25.550Z,18.25
2023-01-29T15:49:59.565Z,18.85
2023-01-29T15:55:13.399Z,23.52
2023-01-29T15:57:46.660Z,27.90
2023-01-29T16:00:28.662Z,24.45
2023-01-29T16:03:01.822Z,23.58
2023-01-29T16:05:35.235Z,22.20
2023-01-29T16:08:13.801Z,21.92
2023-01-29T16:10:54.181Z,18.92
2023-01-29T16:13:30.288Z,18.80
2023-01-29T16:16:08.355Z,21.65
2023-01-29T16:18:57.788Z,19.17
2023-01-29T16:21:37.611Z,21.00
2023-01-29T16:24:14.007Z,19.70
2023-01-29T16:26:49.285Z,21.35
2023-01-29T16:29:30.694Z,23.33
2023-01-29T16:32:06.992Z,21.17
2023-01-29T16:34:42.769Z,19.52
2023-01-29T16:37:23.855Z,19.67
2023-01-29T16:39:57.677Z,21.38
2023-01-29T16:42:32.239Z,21.05
2023-01-29T16:45:27.767Z,21.80
2023-01-29T16:48:30.879Z,17.83
2023-01-29T16:51:13.482Z,18.10
2023-01-29T16:53:56.619Z,15.88
2023-01-29T16:56:33.500Z,17.80
2023-01-29T16:59:07.774Z,18.77
2023-01-29T17:01:40.951Z,18.98
2023-01-29T17:04:19.598Z,17.38
2023-01-29T17:06:57.644Z,18.23
2023-01-29T17:09:36.340Z,18.48
2023-01-29T17:12:18.445Z,20.42
2023-01-29T17:15:01.715Z,19.85
2023-01-29T17:17:36.209Z,17.65
2023-01-29T17:20:15.872Z,19.00
2023-01-29T17:22:48.843Z,19.00
2023-01-29T17:25:22.186Z,18.60
2023-01-29T17:27:55.285Z,20.35
2023-01-29T17:30:32.328Z,18.83
2023-01-29T17:33:13.485Z,18.90
2023-01-29T17:35:47.933Z,19.48
2023-01-29T17:38:26.444Z,19.73
2023-01-29T17:41:04.215Z,20.17
2023-01-29T17:43:37.253Z,21.30
2023-01-29T17:46:14.756Z,20.53
2023-01-29T17:48:49.184Z,20.63
2023-01-29T17:51:25.034Z,21.20
2023-01-29T17:53:58.260Z,19.90
2023-01-29T17:56:31.357Z,23.07
2023-01-29T17:59:14.183Z,22.53
2023-01-29T18:01:48.321Z,21.77
2023-01-29T18:04:31.050Z,20.27
2023-01-29T18:07:06.410Z,17.80
2023-01-29T18:09:39.420Z,17.98
2023-01-29T18:12:12.509Z,21.83
2023-01-29T18:14:45.503Z,19.13
2023-01-29T18:17:22.343Z,18.50
2023-01-29T18:19:56.343Z,20.85
2023-01-29T18:25:03.411Z,18.65
2023-01-29T18:27:36.424Z,20.07
2023-01-29T18:30:13.944Z,20.92
2023-01-29T18:32:50.309Z,21.75
2023-01-29T18:35:23.447Z,20.88
2023-01-29T18:37:58.138Z,21.15
2023-01-29T18:40:32.566Z,18.52
2023-01-29T18:43:05.776Z,21.13
2023-01-29T18:45:38.917Z,20.85
2023-01-29T18:48:14.636Z,20.65
2023-01-29T18:50:47.777Z,19.38
2023-01-29T18:53:22.266Z,19.00
2023-01-29T18:55:57.185Z,19.27
2023-01-29T18:58:35.802Z,17.98
2023-01-29T19:01:12.071Z,19.27
2023-01-29T19:03:45.271Z,18.88
2023-01-29T19:06:18.355Z,20.30
2023-01-29T19:08:53.048Z,18.83
2023-01-29T19:11:26.089Z,20.05
2023-01-29T19:13:59.343Z,18.90
2023-01-29T19:19:19.002Z,20.48
2023-01-29T19:21:53.514Z,18.70
2023-01-29T19:24:27.673Z,21.55
2023-01-29T19:27:02.005Z,24.58
2023-01-29T19:29:36.639Z,25.80
2023-01-29T19:32:09.953Z,23.75
2023-01-29T19:34:44.366Z,20.90
2023-01-29T19:37:17.493Z,19.35
2023-01-29T19:39:51.133Z,21.15
2023-01-29T19:42:27.330Z,20.15
2023-01-29T19:45:00.311Z,20.10
2023-01-29T19:47:33.796Z,21.95
2023-01-29T19:50:09.774Z,22.15
2023-01-29T19:52:51.965Z,20.77
2023-01-29T19:55:25.934Z,18.67
2023-01-29T19:57:59.026Z,21.42
2023-01-29T20:00:32.651Z,19.30
2023-01-29T20:03:07.896Z,18.77
2023-01-29T20:05:43.879Z,18.48
2023-01-29T20:08:19.783Z,20.88
2023-01-29T20:10:53.079Z,22.75
2023-01-29T20:13:30.215Z,23.33
2023-01-29T20:18:38.479Z,18.08
2023-01-29T20:21:15.025Z,19.17
2023-01-29T20:23:50.365Z,16.83
2023-01-29T20:26:26.651Z,17.27
2023-01-29T20:28:59.836Z,17.17
2023-01-29T20:31:32.910Z,16.37
2023-01-29T20:34:06.015Z,16.65
2023-01-29T20:36:40.579Z,16.43
2023-01-29T20:39:15.517Z,16.15
2023-01-29T20:41:51.030Z,16.55
2023-01-29T20:44:26.020Z,15.57
2023-01-29T20:47:01.766Z,15.75
2023-01-29T20:49:35.036Z,15.63
2023-01-29T20:52:10.757Z,17.10
2023-01-29T20:54:43.730Z,18.55
2023-01-29T20:57:16.895Z,18.80
2023-01-29T20:59:50.126Z,19.13
2023-01-29T21:02:23.166Z,18.33
2023-01-29T21:04:56.678Z,17.07
2023-01-29T21:07:31.137Z,16.55
2023-01-29T21:10:04.188Z,16.27
2023-01-29T21:12:37.230Z,16.07
2023-01-29T21:15:11.407Z,18.73
2023-01-29T21:17:44.394Z,16.92
2023-01-29T21:20:17.706Z,15.90
2023-01-29T21:22:52.394Z,15.85
2023-01-29T21:25:25.425Z,17.23
2023-01-29T21:27:58.413Z,16.67
2023-01-29T21:30:31.729Z,16.50
2023-01-29T21:33:05.877Z,17.75
2023-01-29T21:38:13.151Z,18.08
2023-01-29T21:40:46.223Z,17.45
2023-01-29T21:43:18.410Z,18.67
2023-01-29T21:45:57.161Z,16.02
2023-01-29T21:48:30.179Z,15.25
2023-01-29T21:51:03.199Z,17.40
2023-01-29T21:53:40.288Z,17.60
2023-01-29T21:56:19.523Z,19.50
2023-01-29T21:58:52.692Z,15.70
2023-01-29T22:01:37.325Z,15.47
2023-01-29T22:04:15.746Z,15.05
2023-01-29T22:06:50.628Z,14.00
2023-01-29T22:09:27.432Z,15.05
2023-01-29T22:12:00.583Z,13.35
2023-01-29T22:14:33.572Z,13.23
2023-01-29T22:17:06.610Z,15.05
2023-01-29T22:19:41.811Z,14.97
2023-01-29T22:22:18.294Z,15.90
2023-01-29T22:24:55.212Z,15.25
2023-01-29T22:27:31.444Z,14.75
2023-01-29T22:30:04.897Z,14.15
2023-01-29T22:32:38.055Z,13.60
2023-01-29T22:35:11.535Z,15.32
2023-01-29T22:37:44.843Z,13.63
2023-01-29T22:40:19.671Z,15.88
2023-01-29T22:42:52.881Z,14.00
2023-01-29T22:45:25.851Z,15.93
2023-01-29T22:47:58.900Z,15.80
2023-01-29T22:50:31.889Z,14.25
2023-01-29T22:53:13.303Z,14.93
2023-01-29T22:55:54.659Z,15.57
2023-01-29T22:58:27.631Z,14.43
2023-01-29T23:01:00.848Z,15.70
2023-01-29T23:03:34.219Z,15.13
2023-01-29T23:06:07.259Z,15.15
2023-01-29T23:08:42.998Z,15.30
2023-01-29T23:11:20.427Z,15.25
2023-01-29T23:13:58.424Z,14.85
2023-01-29T23:16:31.487Z,14.27
2023-01-29T23:19:04.550Z,16.63
2023-01-29T23:21:37.873Z,14.50
2023-01-29T23:24:14.349Z,14.10
2023-01-29T23:27:06.893Z,15.02
2023-01-29T23:29:40.094Z,13.65
2023-01-29T23:32:15.587Z,13.00
2023-01-29T23:34:48.707Z,13.68
2023-01-29T23:37:21.786Z,14.30
2023-01-29T23:39:54.726Z,12.57
2023-01-29T23:42:29.116Z,11.73
2023-01-29T23:45:02.080Z,12.93
2023-01-29T23:47:42.297Z,11.47
2023-01-29T23:50:15.639Z,11.30
2023-01-29T23:52:48.784Z,11.45
2023-01-29T23:55:21.940Z,11.00
2023-01-29T23:57:56.358Z,9.40
